Time;durP1;ratioP1;P1;durP2;ratioP2;P2;SDS_P1;SDS_P2;PMS_P1;PMS_P2;Temp;Humidity;BMP_temperature;BMP_pressure;BME280_temperature;BME280_humidity;BME280_pressure;Samples;Min_cycle;Max_cycle;Signal;HPM_P1;HPM_P2
2023/01/18 00:02:09;;;;;;;0.70;0.70;;;;;;;;;;6184758;23;20151;-72
2023/01/18 00:04:36;;;;;;;1.00;1.00;;;;;;;;;;6184920;23;20189;-73
2023/01/18 00:07:03;;;;;;;0.60;0.60;;;;;;;;;;6183491;23;20602;-74
2023/01/18 00:09:30;;;;;;;0.80;0.80;;;;;;;;;;6183486;23;20174;-72
2023/01/18 00:11:57;;;;;;;0.70;0.70;;;;;;;;;;6156703;23;20236;-72
2023/01/18 00:14:24;;;;;;;0.60;0.60;;;;;;;;;;6183021;23;20155;-73
2023/01/18 00:16:51;;;;;;;0.70;0.70;;;;;;;;;;6184852;23;20154;-72
2023/01/18 00:19:20;;;;;;;1.85;1.75;;;;;;;;;;6184220;23;20212;-72
2023/01/18 00:21:53;;;;;;;0.60;0.60;;;;;;;;;;6183593;23;20194;-72
2023/01/18 00:24:21;;;;;;;0.65;0.65;;;;;;;;;;6185679;23;20175;-72
2023/01/18 00:26:48;;;;;;;0.75;0.75;;;;;;;;;;6185564;23;20233;-72
2023/01/18 00:29:16;;;;;;;0.70;0.70;;;;;;;;;;6208227;23;20174;-73
2023/01/18 00:31:44;;;;;;;0.75;0.75;;;;;;;;;;6183874;23;20165;-73
2023/01/18 00:34:11;;;;;;;0.77;0.77;;;;;;;;;;6184768;23;20619;-73
2023/01/18 00:36:39;;;;;;;0.80;0.80;;;;;;;;;;6183212;23;20163;-73
2023/01/18 00:39:07;;;;;;;0.90;0.90;;;;;;;;;;6183407;23;20178;-72
2023/01/18 00:43:37;;;;;;;0.60;0.60;;;;;;;;;;6184816;23;20233;-72
2023/01/18 00:44:21;;;;;;;0.80;0.80;;;;;;;;;;6184676;23;20641;-72
2023/01/18 00:46:49;;;;;;;0.75;0.75;;;;;;;;;;6183330;23;20607;-72
2023/01/18 00:49:16;;;;;;;0.80;0.80;;;;;;;;;;6179990;23;20264;-73
2023/01/18 00:51:44;;;;;;;0.60;0.60;;;;;;;;;;6182306;23;20297;-72
2023/01/18 00:54:11;;;;;;;0.70;0.70;;;;;;;;;;6158348;23;20653;-72
2023/01/18 00:56:39;;;;;;;0.80;0.80;;;;;;;;;;6183129;23;20174;-72
2023/01/18 00:59:06;;;;;;;0.60;0.60;;;;;;;;;;6181393;23;20162;-73
2023/01/18 01:01:33;;;;;;;1.20;1.13;;;;;;;;;;6183196;23;20587;-72
2023/01/18 01:06:47;;;;;;;0.80;0.80;;;;;;;;;;6184937;23;20614;-74
2023/01/18 01:09:15;;;;;;;0.70;0.70;;;;;;;;;;6184752;23;20163;-73
2023/01/18 01:12:31;;;;;;;0.60;0.60;;;;;;;;;;6186242;23;20591;-73
2023/01/18 01:28:21;;;;;;;0.70;0.70;;;;;;;;;;6186275;23;20516;-73
2023/01/18 01:30:48;;;;;;;2.28;2.17;;;;;;;;;;6186271;23;20178;-74
2023/01/18 01:33:16;;;;;;;0.70;0.70;;;;;;;;;;6186259;23;20559;-72
2023/01/18 01:35:43;;;;;;;0.70;0.70;;;;;;;;;;6185133;23;20261;-72
2023/01/18 01:41:01;;;;;;;0.65;0.65;;;;;;;;;;6184611;23;20170;-74
2023/01/18 01:43:43;;;;;;;0.60;0.60;;;;;;;;;;6186251;23;20760;-74
2023/01/18 01:46:22;;;;;;;0.60;0.60;;;;;;;;;;6181577;23;20500;-72
2023/01/18 01:48:55;;;;;;;0.63;0.63;;;;;;;;;;6185441;23;20182;-73
2023/01/18 01:51:22;;;;;;;0.70;0.70;;;;;;;;;;6186114;23;20162;-71
2023/01/18 01:53:50;;;;;;;0.60;0.60;;;;;;;;;;6159157;23;20174;-72
2023/01/18 01:56:18;;;;;;;0.60;0.60;;;;;;;;;;6185578;23;20610;-73
2023/01/18 01:58:47;;;;;;;1.13;1.13;;;;;;;;;;6186095;23;20614;-71
2023/01/18 02:01:13;;;;;;;0.80;0.80;;;;;;;;;;6184372;23;20167;-72
2023/01/18 02:03:41;;;;;;;1.15;1.00;;;;;;;;;;6184336;23;20171;-72
2023/01/18 02:06:12;;;;;;;0.80;0.80;;;;;;;;;;6185570;23;20186;-73
2023/01/18 02:08:39;;;;;;;0.68;0.68;;;;;;;;;;6184242;23;20170;-71
2023/01/18 02:11:07;;;;;;;0.90;0.90;;;;;;;;;;6185705;23;20185;-72
2023/01/18 02:13:34;;;;;;;1.45;1.35;;;;;;;;;;6185165;23;20151;-72
2023/01/18 02:16:09;;;;;;;0.70;0.70;;;;;;;;;;6185944;23;20162;-74
2023/01/18 02:18:43;;;;;;;0.70;0.70;;;;;;;;;;6184193;23;20230;-73
2023/01/18 02:21:25;;;;;;;1.83;1.73;;;;;;;;;;6184543;23;20146;-73
2023/01/18 02:24:08;;;;;;;0.80;0.80;;;;;;;;;;6159876;23;20490;-72
2023/01/18 02:27:08;;;;;;;0.60;0.60;;;;;;;;;;6184755;23;20192;-72
2023/01/18 02:29:55;;;;;;;0.73;0.73;;;;;;;;;;6184019;23;20173;-72
2023/01/18 02:32:38;;;;;;;0.70;0.70;;;;;;;;;;6184938;23;20146;-73
2023/01/18 02:35:10;;;;;;;0.70;0.70;;;;;;;;;;6183508;23;20190;-73
2023/01/18 02:37:47;;;;;;;0.70;0.63;;;;;;;;;;6185821;23;20506;-72
2023/01/18 02:40:29;;;;;;;0.80;0.80;;;;;;;;;;6183876;23;20611;-72
2023/01/18 02:48:46;;;;;;;0.90;0.90;;;;;;;;;;6185414;23;20253;-73
2023/01/18 02:51:22;;;;;;;0.60;0.60;;;;;;;;;;6182494;23;20176;-71
2023/01/18 02:53:55;;;;;;;0.70;0.60;;;;;;;;;;6185608;23;20594;-72
2023/01/18 02:56:26;;;;;;;1.10;1.10;;;;;;;;;;6183690;23;20182;-72
2023/01/18 02:59:07;;;;;;;0.68;0.68;;;;;;;;;;6185186;23;20693;-73
2023/01/18 03:01:40;;;;;;;0.80;0.80;;;;;;;;;;6208289;23;20153;-72
2023/01/18 03:04:16;;;;;;;0.63;0.63;;;;;;;;;;6183513;23;20704;-73
2023/01/18 03:06:48;;;;;;;0.75;0.75;;;;;;;;;;6185604;23;20185;-73
2023/01/18 03:09:26;;;;;;;0.60;0.60;;;;;;;;;;6185232;23;20177;-73
2023/01/18 03:12:02;;;;;;;0.70;0.70;;;;;;;;;;6182515;23;20189;-73
2023/01/18 03:14:41;;;;;;;0.80;0.80;;;;;;;;;;6183450;23;20173;-73
2023/01/18 03:17:18;;;;;;;0.70;0.70;;;;;;;;;;6183829;23;20174;-73
2023/01/18 03:20:08;;;;;;;0.65;0.60;;;;;;;;;;6158195;23;20193;-73
2023/01/18 03:25:28;;;;;;;0.70;0.70;;;;;;;;;;6184658;23;20181;-72
2023/01/18 03:33:54;;;;;;;1.10;1.08;;;;;;;;;;6185151;23;20193;-74
2023/01/18 03:36:28;;;;;;;0.77;0.77;;;;;;;;;;6183517;23;20498;-73
2023/01/18 03:39:01;;;;;;;0.70;0.65;;;;;;;;;;6158714;23;20173;-73
2023/01/18 03:41:31;;;;;;;0.85;0.85;;;;;;;;;;6183950;23;20233;-74
2023/01/18 03:44:07;;;;;;;0.77;0.77;;;;;;;;;;6182909;23;20174;-75
2023/01/18 03:46:36;;;;;;;0.60;0.60;;;;;;;;;;6183852;23;20703;-74
2023/01/18 03:49:10;;;;;;;1.10;1.10;;;;;;;;;;6184389;23;20186;-74
2023/01/18 03:51:59;;;;;;;1.00;0.98;;;;;;;;;;6184737;23;20154;-74
2023/01/18 03:54:33;;;;;;;0.98;0.98;;;;;;;;;;6183594;23;20147;-74
2023/01/18 03:57:11;;;;;;;0.63;0.60;;;;;;;;;;6183403;23;20238;-73
2023/01/18 03:59:44;;;;;;;0.60;0.60;;;;;;;;;;6208136;23;20281;-74
2023/01/18 04:02:15;;;;;;;0.80;0.80;;;;;;;;;;6159137;23;20194;-74
2023/01/18 04:04:43;;;;;;;2.10;2.00;;;;;;;;;;6184743;23;20284;-72
2023/01/18 04:07:11;;;;;;;0.70;0.70;;;;;;;;;;6183006;23;20190;-72
2023/01/18 04:09:38;;;;;;;0.70;0.70;;;;;;;;;;6183228;23;20221;-75
2023/01/18 04:12:06;;;;;;;0.80;0.80;;;;;;;;;;6183208;23;20198;-72
2023/01/18 04:14:36;;;;;;;0.80;0.80;;;;;;;;;;6185234;23;20456;-73
2023/01/18 04:17:03;;;;;;;0.70;0.70;;;;;;;;;;6208984;23;20213;-74
2023/01/18 04:19:29;;;;;;;0.80;0.80;;;;;;;;;;6185271;23;20190;-72
2023/01/18 04:21:56;;;;;;;0.80;0.80;;;;;;;;;;6184601;23;20175;-74
2023/01/18 04:24:24;;;;;;;0.70;0.70;;;;;;;;;;6183406;23;20261;-74
2023/01/18 04:26:51;;;;;;;0.80;0.80;;;;;;;;;;6157902;23;20190;-73
2023/01/18 04:29:18;;;;;;;0.88;0.88;;;;;;;;;;6184030;23;20245;-72
2023/01/18 04:31:45;;;;;;;0.70;0.70;;;;;;;;;;6185073;23;20217;-74
2023/01/18 04:34:11;;;;;;;1.38;1.27;;;;;;;;;;6183440;23;20186;-74
2023/01/18 04:36:38;;;;;;;0.70;0.70;;;;;;;;;;6183034;23;20171;-74
2023/01/18 04:39:05;;;;;;;0.60;0.60;;;;;;;;;;6186440;23;20178;-74
2023/01/18 04:41:33;;;;;;;0.70;0.70;;;;;;;;;;6186119;23;20242;-74
2023/01/18 04:44:00;;;;;;;0.70;0.70;;;;;;;;;;6209994;23;20177;-73
2023/01/18 04:46:27;;;;;;;0.70;0.70;;;;;;;;;;6186154;23;20174;-72
2023/01/18 04:48:54;;;;;;;0.70;0.70;;;;;;;;;;6185911;23;20182;-72
2023/01/18 04:51:24;;;;;;;0.70;0.70;;;;;;;;;;6210277;23;20570;-73
2023/01/18 04:53:51;;;;;;;0.73;0.73;;;;;;;;;;6185044;23;20159;-74
2023/01/18 04:56:19;;;;;;;0.70;0.70;;;;;;;;;;6186707;23;20166;-73
2023/01/18 04:58:47;;;;;;;0.80;0.80;;;;;;;;;;6186500;23;20181;-73
2023/01/18 05:01:15;;;;;;;1.35;1.25;;;;;;;;;;6184008;23;20599;-74
2023/01/18 05:03:43;;;;;;;0.80;0.80;;;;;;;;;;6184779;23;20225;-73
2023/01/18 05:06:11;;;;;;;0.80;0.80;;;;;;;;;;6184137;23;20240;-74
2023/01/18 05:08:39;;;;;;;0.75;0.75;;;;;;;;;;6186355;23;20192;-73
2023/01/18 05:11:07;;;;;;;0.70;0.70;;;;;;;;;;6160058;23;20171;-73
2023/01/18 05:13:34;;;;;;;0.70;0.70;;;;;;;;;;6159979;23;20611;-73
2023/01/18 05:16:03;;;;;;;0.93;0.93;;;;;;;;;;6209707;23;20475;-72
2023/01/18 05:18:34;;;;;;;0.82;0.82;;;;;;;;;;6208931;23;20217;-73
2023/01/18 05:21:02;;;;;;;0.60;0.60;;;;;;;;;;6186006;23;20185;-73
2023/01/18 05:23:28;;;;;;;0.70;0.60;;;;;;;;;;6159301;23;20174;-73
2023/01/18 05:25:55;;;;;;;0.60;0.50;;;;;;;;;;6184376;23;20248;-74
2023/01/18 05:28:23;;;;;;;0.60;0.60;;;;;;;;;;6186226;23;20475;-74
2023/01/18 05:30:50;;;;;;;0.60;0.60;;;;;;;;;;6186358;23;20464;-74
2023/01/18 05:33:19;;;;;;;0.68;0.60;;;;;;;;;;6185017;23;20151;-74
2023/01/18 05:35:47;;;;;;;0.60;0.50;;;;;;;;;;6159262;23;20627;-74
2023/01/18 05:38:14;;;;;;;0.70;0.70;;;;;;;;;;6186047;23;20233;-73
2023/01/18 05:40:41;;;;;;;0.85;0.85;;;;;;;;;;6209468;23;20170;-75
2023/01/18 05:43:08;;;;;;;0.70;0.70;;;;;;;;;;6184508;23;20185;-73
2023/01/18 05:45:36;;;;;;;0.60;0.50;;;;;;;;;;6186000;23;20159;-73
2023/01/18 05:48:02;;;;;;;0.98;0.98;;;;;;;;;;6186151;23;20237;-72
2023/01/18 05:50:31;;;;;;;0.90;0.85;;;;;;;;;;6185460;23;20236;-75
2023/01/18 05:53:12;;;;;;;0.80;0.80;;;;;;;;;;6185812;23;20154;-74
2023/01/18 05:55:41;;;;;;;0.80;0.80;;;;;;;;;;6209737;23;20177;-74
2023/01/18 05:58:08;;;;;;;0.70;0.70;;;;;;;;;;6184690;23;20171;-75
2023/01/18 06:00:34;;;;;;;0.90;0.90;;;;;;;;;;6184349;23;20174;-75
2023/01/18 06:03:01;;;;;;;0.75;0.75;;;;;;;;;;6159730;23;20496;-74
2023/01/18 06:05:28;;;;;;;0.75;0.75;;;;;;;;;;6186553;23;20244;-74
2023/01/18 06:07:57;;;;;;;0.60;0.60;;;;;;;;;;6184284;23;20651;-75
2023/01/18 06:10:23;;;;;;;0.70;0.70;;;;;;;;;;6184995;23;20559;-74
2023/01/18 06:12:51;;;;;;;0.70;0.70;;;;;;;;;;6185264;23;20146;-73
2023/01/18 06:15:18;;;;;;;0.60;0.60;;;;;;;;;;6159619;23;20180;-74
2023/01/18 06:17:45;;;;;;;0.60;0.60;;;;;;;;;;6184064;23;20546;-75
2023/01/18 06:20:13;;;;;;;0.75;0.75;;;;;;;;;;6183478;23;20347;-73
2023/01/18 06:22:39;;;;;;;0.70;0.70;;;;;;;;;;6184010;23;20268;-75
2023/01/18 06:25:09;;;;;;;0.60;0.60;;;;;;;;;;6159407;23;20162;-74
2023/01/18 06:27:38;;;;;;;0.70;0.70;;;;;;;;;;6184291;23;20174;-73
2023/01/18 06:30:06;;;;;;;0.65;0.60;;;;;;;;;;6185558;23;20483;-74
2023/01/18 06:32:34;;;;;;;0.70;0.60;;;;;;;;;;6184415;23;20151;-74
2023/01/18 06:35:03;;;;;;;0.90;0.90;;;;;;;;;;6187295;23;20194;-75
2023/01/18 06:37:30;;;;;;;0.80;0.80;;;;;;;;;;6190065;23;20153;-74
2023/01/18 06:39:57;;;;;;;0.70;0.70;;;;;;;;;;6186506;23;20525;-75
2023/01/18 06:42:31;;;;;;;2.05;1.95;;;;;;;;;;6183975;23;20205;-75
2023/01/18 06:44:59;;;;;;;0.98;0.98;;;;;;;;;;6183902;23;20155;-73
2023/01/18 06:47:26;;;;;;;0.63;0.60;;;;;;;;;;6184579;23;20174;-75
2023/01/18 06:49:52;;;;;;;0.90;0.90;;;;;;;;;;6184931;23;20273;-75
2023/01/18 06:52:20;;;;;;;0.70;0.70;;;;;;;;;;6184384;23;20298;-73
2023/01/18 06:54:47;;;;;;;0.70;0.60;;;;;;;;;;6184064;23;20193;-74
2023/01/18 06:57:14;;;;;;;0.70;0.70;;;;;;;;;;6159144;23;20174;-73
2023/01/18 06:59:43;;;;;;;0.70;0.63;;;;;;;;;;6209105;23;20189;-74
2023/01/18 07:02:12;;;;;;;0.70;0.60;;;;;;;;;;6183824;23;20606;-75
2023/01/18 07:04:42;;;;;;;0.80;0.80;;;;;;;;;;6183710;23;20717;-73
2023/01/18 07:07:10;;;;;;;0.70;0.70;;;;;;;;;;6185542;23;20205;-75
2023/01/18 07:09:36;;;;;;;0.70;0.70;;;;;;;;;;6185075;23;20162;-73
2023/01/18 07:12:04;;;;;;;0.68;0.68;;;;;;;;;;6209041;23;20224;-73
2023/01/18 07:14:30;;;;;;;0.70;0.70;;;;;;;;;;6183906;23;20155;-73
2023/01/18 07:16:59;;;;;;;0.70;0.70;;;;;;;;;;6185445;23;20209;-73
2023/01/18 07:19:26;;;;;;;0.88;0.88;;;;;;;;;;6183295;23;20653;-73
2023/01/18 07:21:54;;;;;;;0.85;0.85;;;;;;;;;;6185360;23;20160;-74
2023/01/18 07:24:21;;;;;;;0.70;0.70;;;;;;;;;;6158805;23;20258;-76
2023/01/18 07:26:48;;;;;;;0.80;0.80;;;;;;;;;;6207582;23;20225;-74
2023/01/18 07:29:15;;;;;;;0.90;0.90;;;;;;;;;;6184437;23;20482;-75
2023/01/18 07:31:42;;;;;;;0.60;0.60;;;;;;;;;;6182966;23;20173;-75
2023/01/18 07:34:11;;;;;;;0.60;0.60;;;;;;;;;;6207898;23;20201;-75
2023/01/18 07:36:40;;;;;;;1.02;1.02;;;;;;;;;;6182702;23;20210;-75
2023/01/18 07:39:07;;;;;;;0.70;0.70;;;;;;;;;;6182671;23;20501;-76
2023/01/18 07:41:34;;;;;;;0.80;0.80;;;;;;;;;;6184454;23;20155;-76
2023/01/18 07:44:02;;;;;;;0.60;0.60;;;;;;;;;;6207932;23;20166;-76
2023/01/18 07:46:28;;;;;;;0.70;0.70;;;;;;;;;;6182034;23;20217;-75
2023/01/18 07:48:56;;;;;;;0.73;0.73;;;;;;;;;;6157593;23;20285;-74
2023/01/18 07:51:25;;;;;;;0.63;0.60;;;;;;;;;;6182852;23;20174;-75
2023/01/18 07:53:52;;;;;;;0.60;0.60;;;;;;;;;;6182653;23;20496;-76
2023/01/18 07:56:21;;;;;;;0.60;0.60;;;;;;;;;;6207188;23;20184;-76
2023/01/18 07:58:48;;;;;;;0.60;0.60;;;;;;;;;;6207370;23;20567;-77
2023/01/18 08:01:16;;;;;;;0.70;0.60;;;;;;;;;;6183861;23;20197;-76
2023/01/18 08:03:43;;;;;;;0.70;0.70;;;;;;;;;;6157789;23;20170;-75
2023/01/18 08:06:15;;;;;;;0.63;0.63;;;;;;;;;;6184693;23;20611;-75
2023/01/18 08:08:44;;;;;;;0.70;0.70;;;;;;;;;;6182651;23;20273;-75
2023/01/18 08:11:11;;;;;;;0.80;0.80;;;;;;;;;;6183313;23;20573;-74
2023/01/18 08:13:38;;;;;;;0.60;0.60;;;;;;;;;;6206815;23;20155;-74
2023/01/18 08:16:07;;;;;;;0.70;0.70;;;;;;;;;;6186162;23;20217;-75
2023/01/18 08:18:38;;;;;;;0.60;0.50;;;;;;;;;;6209665;23;20171;-75
2023/01/18 08:21:07;;;;;;;0.60;0.60;;;;;;;;;;6184635;23;20178;-76
2023/01/18 08:23:36;;;;;;;0.80;0.80;;;;;;;;;;6185146;23;20189;-76
2023/01/18 08:26:05;;;;;;;0.60;0.60;;;;;;;;;;6184767;23;20151;-76
2023/01/18 08:28:32;;;;;;;0.60;0.60;;;;;;;;;;6185632;23;20186;-76
2023/01/18 08:31:07;;;;;;;0.65;0.65;;;;;;;;;;6184221;23;20216;-75
2023/01/18 08:33:38;;;;;;;0.60;0.60;;;;;;;;;;6184758;23;20165;-74
2023/01/18 08:36:09;;;;;;;0.90;0.90;;;;;;;;;;6159143;23;20176;-75
2023/01/18 08:38:37;;;;;;;0.60;0.60;;;;;;;;;;6185973;23;20625;-75
2023/01/18 08:41:06;;;;;;;0.80;0.80;;;;;;;;;;6186088;23;20193;-76
2023/01/18 08:43:34;;;;;;;0.70;0.70;;;;;;;;;;6184183;23;20189;-75
2023/01/18 08:46:01;;;;;;;0.75;0.75;;;;;;;;;;6185938;23;20166;-74
2023/01/18 08:48:28;;;;;;;2.28;2.17;;;;;;;;;;6189745;23;20581;-74
2023/01/18 08:50:59;;;;;;;0.60;0.60;;;;;;;;;;6184643;23;20162;-74
2023/01/18 08:53:26;;;;;;;0.60;0.50;;;;;;;;;;6185673;23;20641;-75
2023/01/18 08:55:53;;;;;;;0.60;0.60;;;;;;;;;;6184082;23;20163;-75
2023/01/18 08:58:21;;;;;;;0.60;0.50;;;;;;;;;;6185773;23;20161;-74
2023/01/18 09:00:49;;;;;;;0.60;0.60;;;;;;;;;;6185678;23;20182;-74
2023/01/18 09:03:20;;;;;;;0.70;0.70;;;;;;;;;;6159098;23;20202;-74
2023/01/18 09:05:48;;;;;;;0.70;0.70;;;;;;;;;;6183714;23;20201;-75
2023/01/18 09:08:16;;;;;;;0.60;0.57;;;;;;;;;;6184274;23;20190;-74
2023/01/18 09:10:43;;;;;;;0.63;0.63;;;;;;;;;;6184353;23;20221;-75
2023/01/18 09:13:12;;;;;;;0.70;0.70;;;;;;;;;;6185243;23;20165;-73
2023/01/18 09:15:40;;;;;;;0.60;0.60;;;;;;;;;;6208669;23;20221;-75
2023/01/18 09:18:07;;;;;;;0.60;0.60;;;;;;;;;;6159224;23;20162;-74
2023/01/18 09:20:34;;;;;;;0.60;0.60;;;;;;;;;;6183243;23;20190;-75
2023/01/18 09:23:03;;;;;;;0.60;0.60;;;;;;;;;;6183447;23;20209;-74
2023/01/18 09:25:30;;;;;;;0.60;0.60;;;;;;;;;;6182819;23;20576;-75
2023/01/18 09:27:58;;;;;;;0.60;0.50;;;;;;;;;;6183691;23;20228;-77
2023/01/18 09:30:24;;;;;;;0.60;0.50;;;;;;;;;;6208998;23;20563;-75
2023/01/18 09:32:55;;;;;;;0.60;0.60;;;;;;;;;;6185167;23;20204;-77
2023/01/18 09:35:23;;;;;;;0.60;0.55;;;;;;;;;;6183022;23;20194;-76
2023/01/18 09:37:49;;;;;;;0.60;0.57;;;;;;;;;;6184006;23;20174;-76
2023/01/18 09:40:17;;;;;;;0.60;0.60;;;;;;;;;;6208650;23;20181;-77
2023/01/18 09:42:46;;;;;;;0.60;0.60;;;;;;;;;;6185018;23;20159;-74
2023/01/18 09:45:20;;;;;;;0.60;0.60;;;;;;;;;;6184648;23;20159;-75
2023/01/18 09:47:50;;;;;;;0.60;0.60;;;;;;;;;;6157020;23;20237;-73
2023/01/18 09:50:19;;;;;;;0.60;0.50;;;;;;;;;;6184793;23;20218;-74
2023/01/18 09:52:50;;;;;;;1.13;1.13;;;;;;;;;;6208205;23;20591;-74
2023/01/18 09:55:23;;;;;;;0.60;0.60;;;;;;;;;;6184554;23;20169;-74
2023/01/18 09:57:56;;;;;;;0.60;0.60;;;;;;;;;;6184442;23;20173;-74
2023/01/18 10:00:24;;;;;;;0.60;0.60;;;;;;;;;;6185016;23;20185;-76
2023/01/18 10:02:54;;;;;;;0.60;0.60;;;;;;;;;;6183427;23;20630;-76
2023/01/18 10:05:25;;;;;;;0.60;0.60;;;;;;;;;;6184957;23;20204;-74
2023/01/18 10:08:01;;;;;;;0.60;0.50;;;;;;;;;;6183390;23;20277;-74
2023/01/18 10:10:32;;;;;;;0.63;0.63;;;;;;;;;;6158330;23;20261;-74
2023/01/18 10:13:07;;;;;;;0.80;0.80;;;;;;;;;;6184053;23;20154;-74
2023/01/18 10:15:35;;;;;;;2.00;1.90;;;;;;;;;;6184883;23;20162;-75
2023/01/18 10:18:03;;;;;;;1.35;1.02;;;;;;;;;;6158185;23;20178;-74
2023/01/18 10:20:34;;;;;;;0.60;0.60;;;;;;;;;;6184178;23;20186;-74
2023/01/18 10:23:02;;;;;;;0.60;0.50;;;;;;;;;;6184570;23;20154;-74
2023/01/18 10:25:33;;;;;;;0.60;0.60;;;;;;;;;;6184764;23;20155;-74
2023/01/18 10:28:15;;;;;;;0.60;0.50;;;;;;;;;;6183239;23;20186;-74
2023/01/18 10:30:54;;;;;;;0.60;0.52;;;;;;;;;;6183304;23;20158;-74
2023/01/18 10:33:22;;;;;;;0.60;0.60;;;;;;;;;;6182997;23;20166;-73
2023/01/18 10:35:52;;;;;;;0.60;0.60;;;;;;;;;;6184627;23;20188;-73
2023/01/18 10:38:20;;;;;;;0.80;0.80;;;;;;;;;;6183474;23;20157;-73
2023/01/18 10:40:53;;;;;;;0.60;0.50;;;;;;;;;;6183488;23;20166;-73
2023/01/18 10:43:22;;;;;;;0.90;0.90;;;;;;;;;;6184508;23;20208;-74
2023/01/18 10:45:49;;;;;;;0.80;0.80;;;;;;;;;;6184799;23;20581;-74
2023/01/18 10:48:24;;;;;;;0.80;0.80;;;;;;;;;;6184836;23;20493;-75
2023/01/18 10:50:53;;;;;;;0.60;0.50;;;;;;;;;;6183661;23;20154;-74
2023/01/18 10:53:30;;;;;;;0.60;0.60;;;;;;;;;;6183297;23;20177;-75
2023/01/18 10:56:02;;;;;;;0.63;0.63;;;;;;;;;;6183115;23;20197;-74
2023/01/18 10:58:31;;;;;;;0.60;0.50;;;;;;;;;;6182587;23;20166;-75
2023/01/18 11:00:59;;;;;;;1.63;1.35;;;;;;;;;;6183325;23;20151;-75
2023/01/18 11:03:27;;;;;;;0.82;0.82;;;;;;;;;;6182672;23;20425;-75
2023/01/18 11:06:03;;;;;;;2.08;1.90;;;;;;;;;;6184283;23;20552;-74
2023/01/18 11:08:31;;;;;;;0.85;0.85;;;;;;;;;;6207709;23;20189;-75
2023/01/18 11:11:01;;;;;;;0.90;0.90;;;;;;;;;;6207743;23;20177;-75
2023/01/18 11:13:33;;;;;;;0.60;0.50;;;;;;;;;;6184566;23;20157;-74
2023/01/18 11:16:05;;;;;;;1.33;1.23;;;;;;;;;;6184727;23;20604;-75
2023/01/18 11:18:32;;;;;;;0.60;0.60;;;;;;;;;;6184322;23;20177;-74
2023/01/18 11:21:01;;;;;;;0.70;0.70;;;;;;;;;;6184520;23;20155;-74
2023/01/18 11:23:30;;;;;;;0.60;0.60;;;;;;;;;;6184565;23;20528;-76
2023/01/18 11:25:59;;;;;;;0.60;0.60;;;;;;;;;;6184493;23;20154;-73
2023/01/18 11:28:29;;;;;;;1.27;1.17;;;;;;;;;;6183487;23;20273;-75
2023/01/18 11:30:57;;;;;;;0.60;0.60;;;;;;;;;;6207398;23;20257;-75
2023/01/18 11:33:25;;;;;;;0.60;0.60;;;;;;;;;;6184473;23;20476;-76
2023/01/18 11:35:54;;;;;;;0.60;0.60;;;;;;;;;;6183604;23;20229;-76
2023/01/18 11:38:26;;;;;;;0.70;0.70;;;;;;;;;;6183582;23;20541;-75
2023/01/18 11:41:22;;;;;;;1.45;0.90;;;;;;;;;;6182754;23;20468;-76
2023/01/18 11:43:58;;;;;;;0.70;0.70;;;;;;;;;;6115236;23;20170;-78
2023/01/18 11:46:28;;;;;;;0.60;0.60;;;;;;;;;;6184222;23;20154;-77
2023/01/18 11:48:58;;;;;;;0.60;0.60;;;;;;;;;;6183548;23;20221;-77
2023/01/18 11:51:29;;;;;;;0.60;0.60;;;;;;;;;;6182592;23;20221;-77
2023/01/18 11:54:01;;;;;;;0.60;0.60;;;;;;;;;;6182452;23;20166;-77
2023/01/18 11:56:31;;;;;;;0.85;0.85;;;;;;;;;;6182121;23;20596;-75
2023/01/18 11:59:23;;;;;;;0.60;0.60;;;;;;;;;;6206231;23;20257;-76
2023/01/18 12:02:20;;;;;;;0.60;0.60;;;;;;;;;;6183771;23;20162;-78
2023/01/18 12:04:56;;;;;;;0.60;0.60;;;;;;;;;;6183949;23;20280;-78
2023/01/18 12:07:29;;;;;;;0.60;0.60;;;;;;;;;;6184495;23;20597;-75
2023/01/18 12:09:59;;;;;;;0.60;0.60;;;;;;;;;;6183736;23;20217;-78
2023/01/18 12:12:36;;;;;;;0.60;0.60;;;;;;;;;;6182968;23;20151;-76
2023/01/18 12:15:19;;;;;;;0.60;0.60;;;;;;;;;;6183269;23;20154;-78
2023/01/18 12:17:54;;;;;;;1.88;1.70;;;;;;;;;;6179120;23;20665;-78
2023/01/18 12:20:42;;;;;;;0.60;0.60;;;;;;;;;;6184644;23;20654;-77
2023/01/18 12:23:32;;;;;;;0.60;0.60;;;;;;;;;;6184874;23;20153;-78
2023/01/18 12:26:10;;;;;;;0.68;0.60;;;;;;;;;;6183928;23;20446;-76
2023/01/18 12:28:49;;;;;;;0.70;0.60;;;;;;;;;;6184013;23;20185;-77
2023/01/18 12:31:19;;;;;;;0.60;0.60;;;;;;;;;;6157050;23;20552;-76
2023/01/18 12:33:51;;;;;;;0.70;0.70;;;;;;;;;;6184615;23;20178;-78
2023/01/18 12:36:27;;;;;;;0.60;0.60;;;;;;;;;;6185419;23;20150;-77
2023/01/18 12:39:46;;;;;;;0.70;0.60;;;;;;;;;;6184514;23;20448;-77
2023/01/18 12:42:20;;;;;;;0.60;0.60;;;;;;;;;;6186051;23;20572;-79
2023/01/18 12:45:01;;;;;;;0.70;0.70;;;;;;;;;;6185037;23;20155;-77
2023/01/18 12:47:34;;;;;;;0.68;0.60;;;;;;;;;;6186799;23;20173;-78
2023/01/18 12:50:05;;;;;;;0.70;0.60;;;;;;;;;;6161003;23;20197;-78
2023/01/18 12:52:38;;;;;;;0.70;0.70;;;;;;;;;;6186344;23;20217;-78
2023/01/18 12:55:07;;;;;;;0.70;0.60;;;;;;;;;;6188980;23;20551;-78
2023/01/18 12:57:36;;;;;;;0.70;0.67;;;;;;;;;;6183979;23;20396;-78
2023/01/18 13:00:23;;;;;;;0.70;0.60;;;;;;;;;;6184257;23;20472;-77
2023/01/18 13:02:54;;;;;;;1.13;1.02;;;;;;;;;;6159102;23;20409;-77
2023/01/18 13:05:34;;;;;;;0.63;0.60;;;;;;;;;;6185367;23;20197;-78
2023/01/18 13:08:05;;;;;;;0.70;0.60;;;;;;;;;;6185888;23;20903;-76
2023/01/18 13:10:33;;;;;;;0.70;0.60;;;;;;;;;;6184576;23;20899;-77
2023/01/18 13:13:03;;;;;;;0.70;0.60;;;;;;;;;;6187211;23;20378;-77
2023/01/18 13:15:34;;;;;;;0.70;0.70;;;;;;;;;;6187348;23;20438;-78
2023/01/18 13:18:06;;;;;;;1.00;1.00;;;;;;;;;;6186038;23;20927;-79
2023/01/18 13:20:42;;;;;;;0.70;0.70;;;;;;;;;;6187452;23;20554;-78
2023/01/18 13:23:14;;;;;;;0.70;0.60;;;;;;;;;;6162676;23;20506;-79
2023/01/18 13:25:46;;;;;;;0.70;0.60;;;;;;;;;;6189165;23;20775;-79
2023/01/18 13:28:17;;;;;;;1.27;0.80;;;;;;;;;;6191754;23;20501;-79
2023/01/18 13:30:49;;;;;;;0.70;0.60;;;;;;;;;;6192923;23;20390;-75
2023/01/18 13:33:19;;;;;;;0.70;0.60;;;;;;;;;;6191892;23;20154;-78
2023/01/18 13:35:51;;;;;;;0.70;0.60;;;;;;;;;;6191095;23;20416;-78
2023/01/18 13:38:21;;;;;;;0.70;0.70;;;;;;;;;;6194136;23;20374;-77
2023/01/18 13:41:06;;;;;;;0.70;0.60;;;;;;;;;;6192033;23;20422;-79
2023/01/18 13:43:53;;;;;;;0.70;0.60;;;;;;;;;;6188909;23;20384;-78
2023/01/18 13:46:22;;;;;;;0.70;0.60;;;;;;;;;;6190415;23;20407;-80
2023/01/18 13:48:53;;;;;;;0.70;0.70;;;;;;;;;;6190914;23;20437;-80
2023/01/18 13:51:38;;;;;;;0.70;0.67;;;;;;;;;;6187970;23;20378;-81
2023/01/18 13:54:06;;;;;;;0.70;0.60;;;;;;;;;;6211741;23;20428;-78
2023/01/18 13:56:35;;;;;;;1.13;1.03;;;;;;;;;;6185946;23;20155;-78
2023/01/18 13:59:04;;;;;;;1.70;1.60;;;;;;;;;;6186016;23;20374;-79
2023/01/18 14:01:34;;;;;;;0.70;0.60;;;;;;;;;;6208854;23;20401;-79
2023/01/18 14:04:07;;;;;;;0.70;0.70;;;;;;;;;;6209032;23;20458;-78
2023/01/18 14:06:36;;;;;;;0.90;0.90;;;;;;;;;;6210638;23;20413;-80
2023/01/18 14:09:34;;;;;;;0.70;0.70;;;;;;;;;;6183784;23;20876;-79
2023/01/18 14:12:02;;;;;;;1.17;1.08;;;;;;;;;;6184847;23;20465;-78
2023/01/18 14:14:30;;;;;;;0.70;0.60;;;;;;;;;;6207863;23;20236;-78
2023/01/18 14:17:04;;;;;;;0.70;0.60;;;;;;;;;;6186556;23;20468;-77
2023/01/18 14:19:38;;;;;;;0.70;0.70;;;;;;;;;;6184581;23;20405;-76
2023/01/18 14:22:15;;;;;;;0.70;0.60;;;;;;;;;;6186735;23;20426;-79
2023/01/18 14:24:48;;;;;;;0.70;0.63;;;;;;;;;;6211413;23;20170;-77
2023/01/18 14:27:18;;;;;;;0.80;0.70;;;;;;;;;;6183376;23;20489;-77
2023/01/18 14:29:46;;;;;;;0.70;0.60;;;;;;;;;;6186735;23;20414;-78
2023/01/18 14:32:20;;;;;;;0.80;0.80;;;;;;;;;;6185654;23;20151;-75
2023/01/18 14:34:55;;;;;;;0.70;0.70;;;;;;;;;;6181797;23;20272;-77
2023/01/18 14:37:25;;;;;;;0.70;0.70;;;;;;;;;;6184439;23;20166;-77
2023/01/18 14:40:02;;;;;;;1.00;0.90;;;;;;;;;;6186061;23;20141;-77
2023/01/18 14:42:33;;;;;;;0.80;0.80;;;;;;;;;;6187503;23;20436;-76
2023/01/18 14:45:04;;;;;;;0.70;0.60;;;;;;;;;;6185602;23;20155;-77
2023/01/18 14:47:33;;;;;;;0.70;0.60;;;;;;;;;;6187289;23;20151;-76
2023/01/18 14:50:02;;;;;;;0.70;0.70;;;;;;;;;;6183250;23;20465;-78
2023/01/18 14:52:29;;;;;;;0.70;0.60;;;;;;;;;;6185438;23;20209;-77
2023/01/18 14:54:57;;;;;;;1.10;1.00;;;;;;;;;;6183634;23;20152;-77
2023/01/18 14:57:24;;;;;;;0.70;0.60;;;;;;;;;;6183148;23;20162;-77
2023/01/18 14:59:52;;;;;;;0.70;0.60;;;;;;;;;;6158316;23;20617;-76
2023/01/18 15:02:23;;;;;;;0.70;0.60;;;;;;;;;;6185638;23;20169;-76
2023/01/18 15:05:08;;;;;;;0.70;0.70;;;;;;;;;;6183880;23;20197;-79
2023/01/18 15:07:38;;;;;;;0.70;0.70;;;;;;;;;;6183408;23;20167;-76
2023/01/18 15:10:05;;;;;;;0.70;0.60;;;;;;;;;;6184668;23;20275;-76
2023/01/18 15:12:32;;;;;;;0.70;0.60;;;;;;;;;;6208071;23;20249;-77
2023/01/18 15:15:03;;;;;;;0.70;0.70;;;;;;;;;;6183668;23;20262;-79
2023/01/18 15:17:30;;;;;;;0.70;0.70;;;;;;;;;;6184118;23;20516;-76
2023/01/18 15:20:02;;;;;;;0.70;0.60;;;;;;;;;;6183888;23;20185;-77
2023/01/18 15:22:30;;;;;;;0.70;0.60;;;;;;;;;;6183796;23;20449;-76
2023/01/18 15:24:58;;;;;;;0.70;0.60;;;;;;;;;;6184508;23;20162;-76
2023/01/18 15:27:27;;;;;;;0.70;0.70;;;;;;;;;;6184200;23;20613;-78
2023/01/18 15:29:56;;;;;;;0.70;0.70;;;;;;;;;;6184432;23;20185;-76
2023/01/18 15:32:24;;;;;;;0.70;0.70;;;;;;;;;;6184265;23;20155;-75
2023/01/18 15:34:51;;;;;;;0.70;0.70;;;;;;;;;;6182150;23;20194;-77
2023/01/18 15:37:21;;;;;;;0.70;0.65;;;;;;;;;;6184393;23;20238;-75
2023/01/18 15:39:48;;;;;;;0.70;0.70;;;;;;;;;;6182880;23;20479;-75